createdAt,value
2018-08-30T00:01:37.404Z,99.90
2018-08-30T00:04:12.573Z,99.90
2018-08-30T00:06:46.517Z,99.90
2018-08-30T00:09:20.331Z,99.90
2018-08-30T00:11:55.521Z,99.90
2018-08-30T00:14:29.601Z,99.90
2018-08-30T00:17:05.495Z,99.90
2018-08-30T00:19:39.871Z,99.90
2018-08-30T00:22:14.453Z,99.90
2018-08-30T00:24:49.483Z,99.90
2018-08-30T00:27:24.240Z,99.90
2018-08-30T00:29:59.409Z,99.90
2018-08-30T00:32:33.578Z,99.90
2018-08-30T00:35:07.672Z,99.90
2018-08-30T00:37:41.996Z,99.90
2018-08-30T00:40:16.872Z,99.90
2018-08-30T00:42:51.781Z,99.90
2018-08-30T00:45:21.947Z,99.90
2018-08-30T00:47:56.263Z,99.90
2018-08-30T00:50:32.314Z,99.90
2018-08-30T00:53:07.079Z,99.90
2018-08-30T00:55:40.589Z,99.90
2018-08-30T00:58:15.656Z,99.90
2018-08-30T01:00:49.784Z,99.90
2018-08-30T01:03:24.529Z,99.90
2018-08-30T01:05:58.205Z,99.90
2018-08-30T01:08:33.550Z,99.90
2018-08-30T01:11:07.929Z,99.90
2018-08-30T01:13:41.696Z,99.90
2018-08-30T01:16:16.395Z,99.90
2018-08-30T01:18:50.603Z,99.90
2018-08-30T01:21:25.559Z,99.90
2018-08-30T01:24:00.065Z,99.90
2018-08-30T01:26:35.894Z,99.90
2018-08-30T01:29:10.482Z,99.90
2018-08-30T01:31:44.620Z,99.90
2018-08-30T01:34:18.373Z,99.90
2018-08-30T01:36:53.201Z,99.90
2018-08-30T01:39:24.881Z,99.90
2018-08-30T01:42:00.017Z,99.90
2018-08-30T01:44:35.190Z,99.90
2018-08-30T01:47:10.995Z,99.90
2018-08-30T01:49:46.528Z,99.90
2018-08-30T01:52:20.555Z,99.90
2018-08-30T01:54:57.246Z,99.90
2018-08-30T01:57:32.087Z,99.90
2018-08-30T02:00:08.071Z,99.90
2018-08-30T02:02:43.376Z,99.90
2018-08-30T02:05:15.990Z,99.90
2018-08-30T02:07:51.624Z,99.90
2018-08-30T02:10:27.195Z,99.90
2018-08-30T02:13:01.208Z,99.90
2018-08-30T02:15:35.707Z,99.90
2018-08-30T02:18:09.300Z,99.90
2018-08-30T02:20:44.982Z,99.90
2018-08-30T02:23:20.576Z,99.90
2018-08-30T02:25:55.744Z,99.90
2018-08-30T02:28:30.360Z,99.90
2018-08-30T02:31:05.868Z,99.90
2018-08-30T02:33:41.380Z,99.90
2018-08-30T02:36:16.132Z,99.90
2018-08-30T02:38:47.264Z,99.90
2018-08-30T02:41:22.483Z,99.90
2018-08-30T02:43:56.146Z,99.90
2018-08-30T02:46:29.818Z,99.90
2018-08-30T02:49:03.479Z,99.90
2018-08-30T02:51:37.991Z,99.90
2018-08-30T02:54:13.473Z,99.90
2018-08-30T02:56:47.716Z,99.90
2018-08-30T02:59:20.415Z,99.90
2018-08-30T03:01:56.539Z,99.90
2018-08-30T03:04:31.410Z,99.90
2018-08-30T03:07:05.448Z,99.90
2018-08-30T03:09:40.606Z,99.90
2018-08-30T03:12:14.123Z,99.90
2018-08-30T03:14:49.044Z,99.90
2018-08-30T03:17:24.259Z,99.90
2018-08-30T03:19:58.816Z,99.90
2018-08-30T03:22:32.389Z,99.90
2018-08-30T03:25:05.361Z,99.90
2018-08-30T03:27:39.966Z,99.90
2018-08-30T03:30:13.888Z,99.90
2018-08-30T03:32:49.955Z,99.90
2018-08-30T03:35:24.645Z,99.90
2018-08-30T03:38:00.358Z,99.90
2018-08-30T03:40:35.221Z,99.90
2018-08-30T03:43:12.040Z,99.90
2018-08-30T03:45:46.254Z,99.90
2018-08-30T03:48:24.791Z,99.90
2018-08-30T03:50:59.889Z,99.90
2018-08-30T03:53:34.259Z,99.90
2018-08-30T03:56:11.872Z,99.90
2018-08-30T03:58:44.349Z,99.90
2018-08-30T04:01:19.532Z,99.90
2018-08-30T04:03:53.195Z,99.90
2018-08-30T04:06:28.462Z,99.90
2018-08-30T04:09:02.599Z,99.90
2018-08-30T04:11:36.523Z,99.90
2018-08-30T04:14:10.959Z,99.90
2018-08-30T04:16:44.354Z,99.90
2018-08-30T04:19:18.571Z,99.90
2018-08-30T04:21:53.237Z,99.90
2018-08-30T04:24:27.066Z,99.90
2018-08-30T04:27:03.668Z,99.90
2018-08-30T04:29:38.090Z,99.90
2018-08-30T04:32:12.050Z,99.90
2018-08-30T04:34:45.352Z,99.90
2018-08-30T04:37:19.893Z,99.90
2018-08-30T04:39:50.242Z,99.90
2018-08-30T04:42:24.242Z,99.90
2018-08-30T04:44:58.688Z,99.90
2018-08-30T04:47:32.648Z,99.90
2018-08-30T04:50:07.817Z,99.90
2018-08-30T04:52:42.443Z,99.90
2018-08-30T04:55:17.630Z,99.90
2018-08-30T04:57:48.701Z,99.90
2018-08-30T05:00:24.173Z,99.90
2018-08-30T05:02:58.989Z,99.90
2018-08-30T05:05:33.340Z,99.90
2018-08-30T05:08:07.346Z,99.90
2018-08-30T05:10:43.362Z,99.90
2018-08-30T05:13:18.824Z,99.90
2018-08-30T05:15:53.511Z,99.90
2018-08-30T05:18:29.941Z,99.90
2018-08-30T05:21:05.325Z,99.90
2018-08-30T05:23:39.201Z,99.90
2018-08-30T05:26:13.570Z,99.90
2018-08-30T05:28:47.366Z,99.90
2018-08-30T05:31:22.409Z,99.90
2018-08-30T05:33:56.388Z,99.90
2018-08-30T05:36:28.398Z,99.90
2018-08-30T05:39:02.977Z,99.90
2018-08-30T05:41:38.503Z,99.90
2018-08-30T05:44:12.681Z,99.90
2018-08-30T05:46:46.943Z,99.90
2018-08-30T05:49:20.886Z,99.90
2018-08-30T05:51:55.074Z,99.90
2018-08-30T05:54:29.633Z,99.90
2018-08-30T05:57:00.992Z,99.90
2018-08-30T05:59:33.984Z,99.90
2018-08-30T06:02:09.428Z,99.90
2018-08-30T06:04:44.005Z,99.90
2018-08-30T06:07:18.309Z,99.90
2018-08-30T06:09:52.347Z,99.90
2018-08-30T06:12:28.068Z,99.90
2018-08-30T06:15:02.117Z,99.90
2018-08-30T06:17:35.549Z,99.90
2018-08-30T06:20:09.417Z,99.90
2018-08-30T06:22:44.078Z,99.90
2018-08-30T06:25:18.466Z,99.90
2018-08-30T06:27:53.416Z,99.90
2018-08-30T06:30:27.757Z,99.90
2018-08-30T06:33:03.172Z,99.90
2018-08-30T06:35:35.984Z,99.90
2018-08-30T06:38:09.989Z,99.90
2018-08-30T06:40:46.255Z,99.90
2018-08-30T06:43:21.141Z,99.90
2018-08-30T06:45:53.931Z,99.90
2018-08-30T06:48:29.333Z,99.90
2018-08-30T06:51:04.445Z,99.90
2018-08-30T06:53:38.879Z,99.90
2018-08-30T06:56:13.572Z,99.90
2018-08-30T06:58:49.253Z,99.90
2018-08-30T07:01:23.844Z,99.90
2018-08-30T07:03:57.947Z,99.90
2018-08-30T07:06:32.618Z,99.90
2018-08-30T07:09:07.223Z,99.90
2018-08-30T07:11:42.243Z,99.90
2018-08-30T07:14:15.702Z,99.90
2018-08-30T07:16:50.475Z,99.90
2018-08-30T07:19:24.715Z,99.90
2018-08-30T07:21:59.208Z,99.90
2018-08-30T07:24:32.827Z,99.90
2018-08-30T07:27:09.533Z,99.90
2018-08-30T07:29:43.097Z,99.90
2018-08-30T07:32:18.202Z,99.90
2018-08-30T07:34:51.897Z,99.90
2018-08-30T07:37:26.409Z,99.90
2018-08-30T07:39:55.195Z,99.90
2018-08-30T07:42:23.918Z,99.90
2018-08-30T07:44:52.657Z,99.90
2018-08-30T07:47:21.612Z,99.90
2018-08-30T07:49:50.365Z,99.90
2018-08-30T07:52:19.844Z,99.90
2018-08-30T07:54:48.654Z,99.90
2018-08-30T07:57:17.403Z,99.90
2018-08-30T07:59:46.093Z,99.90
2018-08-30T08:02:14.921Z,99.90
2018-08-30T08:04:43.672Z,99.90
2018-08-30T08:07:12.671Z,99.90
2018-08-30T08:09:41.405Z,99.90
2018-08-30T08:12:10.109Z,99.90
2018-08-30T08:14:38.809Z,99.90
2018-08-30T08:17:07.605Z,99.90
2018-08-30T08:19:36.392Z,99.90
2018-08-30T08:22:05.183Z,99.90
2018-08-30T08:24:34.142Z,99.90
2018-08-30T08:27:03.049Z,99.90
2018-08-30T08:29:31.753Z,99.90
2018-08-30T08:32:00.527Z,99.90
2018-08-30T08:34:29.262Z,99.90
2018-08-30T08:36:58.676Z,99.90
2018-08-30T08:39:28.234Z,99.90
2018-08-30T08:41:56.976Z,99.90
2018-08-30T08:44:27.478Z,99.90
2018-08-30T08:46:57.112Z,99.90
2018-08-30T08:49:32.539Z,99.70
2018-08-30T08:52:01.390Z,99.30
2018-08-30T08:54:30.186Z,99.00
2018-08-30T08:57:00.726Z,98.50
2018-08-30T08:59:30.841Z,97.40
2018-08-30T09:01:59.583Z,96.20
2018-08-30T09:04:28.472Z,96.10
2018-08-30T09:06:57.470Z,96.10
2018-08-30T09:09:26.262Z,96.10
2018-08-30T09:11:55.002Z,95.30
2018-08-30T09:14:23.797Z,95.70
2018-08-30T09:16:52.529Z,96.30
2018-08-30T09:19:21.307Z,96.60
2018-08-30T09:21:50.074Z,96.80
2018-08-30T09:24:18.810Z,97.90
2018-08-30T09:26:47.566Z,98.60
2018-08-30T09:29:16.382Z,98.80
2018-08-30T09:31:45.142Z,99.30
2018-08-30T09:34:13.921Z,99.70
2018-08-30T09:36:42.781Z,99.70
2018-08-30T09:39:11.526Z,99.50
2018-08-30T09:41:40.229Z,97.90
2018-08-30T09:44:09.022Z,97.30
2018-08-30T09:46:37.841Z,98.70
2018-08-30T09:49:06.640Z,98.60
2018-08-30T09:51:35.388Z,99.30
2018-08-30T09:54:04.165Z,99.90
2018-08-30T09:56:34.178Z,99.90
2018-08-30T09:59:02.939Z,99.90
2018-08-30T10:01:37.089Z,99.90
2018-08-30T10:04:05.950Z,99.90
2018-08-30T10:06:34.684Z,98.90
2018-08-30T10:09:03.641Z,98.60
2018-08-30T10:11:32.406Z,98.40
2018-08-30T10:14:01.130Z,97.30
2018-08-30T10:16:29.862Z,97.90
2018-08-30T10:18:58.576Z,97.10
2018-08-30T10:21:27.453Z,97.50
2018-08-30T10:23:56.245Z,97.90
2018-08-30T10:26:25.100Z,97.20
2018-08-30T10:28:53.846Z,96.80
2018-08-30T10:31:22.624Z,96.70
2018-08-30T10:33:51.626Z,95.60
2018-08-30T10:36:20.361Z,95.30
2018-08-30T10:38:49.049Z,94.40
2018-08-30T10:41:17.781Z,94.50
2018-08-30T10:43:46.519Z,94.00
2018-08-30T10:46:15.238Z,93.20
2018-08-30T10:48:44.022Z,93.60
2018-08-30T10:51:12.813Z,94.10
2018-08-30T10:53:41.583Z,95.40
2018-08-30T10:56:10.576Z,96.30
2018-08-30T10:58:39.352Z,96.80
2018-08-30T11:01:08.069Z,97.00
2018-08-30T11:03:37.005Z,96.70
2018-08-30T11:06:06.234Z,96.30
2018-08-30T11:08:35.074Z,95.10
2018-08-30T11:11:03.896Z,94.70
2018-08-30T11:13:32.803Z,94.30
2018-08-30T11:16:01.497Z,93.50
2018-08-30T11:18:30.281Z,92.40
2018-08-30T11:20:59.039Z,91.70
2018-08-30T11:23:27.781Z,90.20
2018-08-30T11:25:56.603Z,90.60
2018-08-30T11:28:25.342Z,91.00
2018-08-30T11:30:54.138Z,92.10
2018-08-30T11:33:22.905Z,93.50
2018-08-30T11:35:51.686Z,93.90
2018-08-30T11:38:20.513Z,93.70
2018-08-30T11:40:49.233Z,93.40
2018-08-30T11:43:18.110Z,92.00
2018-08-30T11:45:46.839Z,91.80
2018-08-30T11:48:15.622Z,90.40
2018-08-30T11:50:44.344Z,90.00
2018-08-30T11:53:13.087Z,89.70
2018-08-30T11:55:41.841Z,89.50
2018-08-30T11:58:10.579Z,89.70
2018-08-30T12:00:39.501Z,91.30
2018-08-30T12:03:08.432Z,92.00
2018-08-30T12:05:37.233Z,92.20
2018-08-30T12:08:06.196Z,91.60
2018-08-30T12:10:37.447Z,90.50
2018-08-30T12:13:06.295Z,87.50
2018-08-30T12:15:35.036Z,85.30
2018-08-30T12:18:04.538Z,85.10
2018-08-30T12:20:33.330Z,85.00
2018-08-30T12:23:02.168Z,83.80
2018-08-30T12:25:30.932Z,83.80
2018-08-30T12:27:59.709Z,85.70
2018-08-30T12:30:28.493Z,83.30
2018-08-30T12:32:57.229Z,82.30
2018-08-30T12:35:26.158Z,80.20
2018-08-30T12:37:55.016Z,79.80
2018-08-30T12:40:23.923Z,80.10
2018-08-30T12:42:52.822Z,78.30
2018-08-30T12:45:21.386Z,76.40
2018-08-30T12:47:50.226Z,76.20
2018-08-30T12:50:19.121Z,75.10
2018-08-30T12:52:47.864Z,74.20
2018-08-30T12:55:16.771Z,71.70
2018-08-30T12:57:45.504Z,66.20
2018-08-30T13:00:14.381Z,65.20
2018-08-30T13:02:43.241Z,60.70
2018-08-30T13:05:12.133Z,55.80
2018-08-30T13:07:40.852Z,48.70
2018-08-30T13:10:09.669Z,41.50
2018-08-30T13:12:38.503Z,36.70
2018-08-30T13:15:07.497Z,34.20
2018-08-30T13:17:36.077Z,32.10
2018-08-30T13:20:05.039Z,32.00
2018-08-30T13:22:33.965Z,33.90
2018-08-30T13:25:02.953Z,33.00
2018-08-30T13:27:31.569Z,30.20
2018-08-30T13:30:00.233Z,30.40
2018-08-30T13:32:29.171Z,29.10
2018-08-30T13:34:58.160Z,28.50
2018-08-30T13:37:26.702Z,28.90
2018-08-30T13:39:55.449Z,29.10
2018-08-30T13:42:24.240Z,28.00
2018-08-30T13:44:53.193Z,28.50
2018-08-30T13:47:21.981Z,30.70
2018-08-30T13:49:50.427Z,33.20
2018-08-30T13:52:19.372Z,37.10
2018-08-30T13:54:48.364Z,35.40
2018-08-30T13:57:17.181Z,32.00
2018-08-30T13:59:46.055Z,29.80
2018-08-30T14:02:14.776Z,28.90
2018-08-30T14:04:43.369Z,28.50
2018-08-30T14:07:12.310Z,28.00
2018-08-30T14:09:41.156Z,28.00
2018-08-30T14:12:10.101Z,27.10
2018-08-30T14:14:38.702Z,27.20
2018-08-30T14:17:07.276Z,28.00
2018-08-30T14:19:36.113Z,27.20
2018-08-30T14:22:04.924Z,26.30
2018-08-30T14:24:33.715Z,25.40
2018-08-30T14:27:02.693Z,26.70
2018-08-30T14:29:31.279Z,28.00
2018-08-30T14:32:00.075Z,28.90
2018-08-30T14:34:28.879Z,29.30
2018-08-30T14:36:57.785Z,31.10
2018-08-30T14:39:26.512Z,30.60
2018-08-30T14:41:55.321Z,30.00
2018-08-30T14:44:24.067Z,28.10
2018-08-30T14:46:52.958Z,27.50
2018-08-30T14:49:21.690Z,27.10
2018-08-30T14:51:50.476Z,26.50
2018-08-30T14:54:19.377Z,26.40
2018-08-30T14:56:48.445Z,26.10
2018-08-30T14:59:17.220Z,25.90
2018-08-30T15:01:46.078Z,26.50
2018-08-30T15:04:14.765Z,28.20
2018-08-30T15:06:43.498Z,30.70
2018-08-30T15:09:12.248Z,31.90
2018-08-30T15:11:41.009Z,34.30
2018-08-30T15:14:09.741Z,35.30
2018-08-30T15:16:38.491Z,35.70
2018-08-30T15:19:07.330Z,35.00
2018-08-30T15:21:36.082Z,35.70
2018-08-30T15:24:04.961Z,37.10
2018-08-30T15:26:33.698Z,37.60
2018-08-30T15:29:02.545Z,35.40
2018-08-30T15:31:31.267Z,35.70
2018-08-30T15:34:00.295Z,36.90
2018-08-30T15:36:28.786Z,38.90
2018-08-30T15:38:57.681Z,39.10
2018-08-30T15:41:26.632Z,38.40
2018-08-30T15:43:55.373Z,39.20
2018-08-30T15:46:24.204Z,40.20
2018-08-30T15:48:52.988Z,39.10
2018-08-30T15:51:21.730Z,39.70
2018-08-30T15:53:50.533Z,39.90
2018-08-30T15:56:19.294Z,41.00
2018-08-30T15:58:48.055Z,40.80
2018-08-30T16:01:16.918Z,42.20
2018-08-30T16:03:45.656Z,43.40
2018-08-30T16:06:14.407Z,44.00
2018-08-30T16:08:43.225Z,44.50
2018-08-30T16:11:12.073Z,44.90
2018-08-30T16:13:40.787Z,45.10
2018-08-30T16:16:09.583Z,45.40
2018-08-30T16:18:38.522Z,45.00
2018-08-30T16:21:07.121Z,44.50
2018-08-30T16:23:37.028Z,45.00
2018-08-30T16:26:05.890Z,45.70
2018-08-30T16:28:35.276Z,46.30
2018-08-30T16:31:04.099Z,45.70
2018-08-30T16:33:32.852Z,45.40
2018-08-30T16:36:01.613Z,44.20
2018-08-30T16:38:30.384Z,44.20
2018-08-30T16:40:59.157Z,43.90
2018-08-30T16:43:27.871Z,44.40
2018-08-30T16:46:01.423Z,44.70
2018-08-30T16:48:30.213Z,45.40
2018-08-30T16:50:58.954Z,45.20
2018-08-30T16:53:27.703Z,45.90
2018-08-30T16:55:56.444Z,46.50
2018-08-30T16:58:25.231Z,47.20
2018-08-30T17:00:54.021Z,47.30
2018-08-30T17:03:22.785Z,47.80
2018-08-30T17:05:51.597Z,48.00
2018-08-30T17:08:20.327Z,48.30
2018-08-30T17:10:49.090Z,49.00
2018-08-30T17:13:17.866Z,49.30
2018-08-30T17:15:46.677Z,50.00
2018-08-30T17:18:15.470Z,50.30
2018-08-30T17:20:46.991Z,50.60
2018-08-30T17:23:15.728Z,50.20
2018-08-30T17:25:44.783Z,50.60
2018-08-30T17:28:13.772Z,51.00
2018-08-30T17:30:42.885Z,51.20
2018-08-30T17:33:11.999Z,51.30
2018-08-30T17:35:40.778Z,51.20
2018-08-30T17:38:09.662Z,51.50
2018-08-30T17:40:38.465Z,51.80
2018-08-30T17:43:07.298Z,52.10
2018-08-30T17:45:36.201Z,52.70
2018-08-30T17:48:04.910Z,52.40
2018-08-30T17:50:33.856Z,52.80
2018-08-30T17:53:02.518Z,53.40
2018-08-30T17:55:31.375Z,53.90
2018-08-30T17:58:00.245Z,54.40
2018-08-30T18:00:29.053Z,55.40
2018-08-30T18:02:57.808Z,55.50
2018-08-30T18:05:26.618Z,55.90
2018-08-30T18:07:55.446Z,56.30
2018-08-30T18:10:24.236Z,56.20
2018-08-30T18:12:53.045Z,56.50
2018-08-30T18:15:24.632Z,56.80
2018-08-30T18:17:58.533Z,57.00
2018-08-30T18:20:34.963Z,57.50
2018-08-30T18:23:11.315Z,57.70
2018-08-30T18:25:40.936Z,57.90
2018-08-30T18:28:14.738Z,58.10
2018-08-30T18:30:44.305Z,58.40
2018-08-30T18:33:15.563Z,58.90
2018-08-30T18:35:45.149Z,59.10
2018-08-30T18:38:18.547Z,59.20
2018-08-30T18:40:51.229Z,59.50
2018-08-30T18:43:20.085Z,59.90
2018-08-30T18:45:49.272Z,60.20
2018-08-30T18:48:22.356Z,60.90
2018-08-30T18:50:55.479Z,61.40
2018-08-30T18:53:28.698Z,62.50
2018-08-30T18:56:02.342Z,63.30
2018-08-30T18:58:35.359Z,63.50
2018-08-30T19:01:07.068Z,64.00
2018-08-30T19:03:39.785Z,65.00
2018-08-30T19:06:12.421Z,65.30
2018-08-30T19:08:47.284Z,66.00
2018-08-30T19:11:22.867Z,66.40
2018-08-30T19:13:56.724Z,66.60
2018-08-30T19:16:30.854Z,66.80
2018-08-30T19:19:04.837Z,66.90
2018-08-30T19:21:33.579Z,67.30
2018-08-30T19:24:02.404Z,67.40
2018-08-30T19:26:31.271Z,68.20
2018-08-30T19:29:00.057Z,67.70
2018-08-30T19:31:28.809Z,68.20
2018-08-30T19:33:57.595Z,68.40
2018-08-30T19:36:29.141Z,68.70
2018-08-30T19:38:57.991Z,69.30
2018-08-30T19:41:26.762Z,69.50
2018-08-30T19:43:55.540Z,69.70
2018-08-30T19:46:24.578Z,70.30
2018-08-30T19:48:53.384Z,71.60
2018-08-30T19:51:22.183Z,71.10
2018-08-30T19:53:56.642Z,71.60
2018-08-30T19:56:31.883Z,72.00
2018-08-30T19:59:04.035Z,72.30
2018-08-30T20:01:38.896Z,72.90
2018-08-30T20:04:13.289Z,73.10
2018-08-30T20:06:46.648Z,72.90
2018-08-30T20:09:16.699Z,73.10
2018-08-30T20:11:50.900Z,73.40
2018-08-30T20:14:23.648Z,73.40
2018-08-30T20:16:58.288Z,73.40
2018-08-30T20:19:29.210Z,73.50
2018-08-30T20:22:03.367Z,73.70
2018-08-30T20:24:34.886Z,74.00
2018-08-30T20:27:04.909Z,73.90
2018-08-30T20:29:39.328Z,73.80
2018-08-30T20:32:11.546Z,73.60
2018-08-30T20:34:42.469Z,73.30
2018-08-30T20:37:11.989Z,73.20
2018-08-30T20:39:45.865Z,73.50
2018-08-30T20:42:21.758Z,73.40
2018-08-30T20:44:50.666Z,73.70
2018-08-30T20:47:19.418Z,73.30
2018-08-30T20:49:48.319Z,73.70
2018-08-30T20:52:17.240Z,74.50
2018-08-30T20:54:46.014Z,74.90
2018-08-30T20:57:14.912Z,74.80
2018-08-30T20:59:43.814Z,75.10
2018-08-30T21:02:12.710Z,75.70
2018-08-30T21:04:45.918Z,75.70
2018-08-30T21:07:19.362Z,76.30
2018-08-30T21:09:52.091Z,76.70
2018-08-30T21:12:22.555Z,77.00
2018-08-30T21:14:56.887Z,77.40
2018-08-30T21:17:29.245Z,77.90
2018-08-30T21:20:01.924Z,78.20
2018-08-30T21:22:35.170Z,78.30
2018-08-30T21:25:07.941Z,78.70
2018-08-30T21:27:40.410Z,79.10
2018-08-30T21:30:13.457Z,79.10
2018-08-30T21:32:46.983Z,79.50
2018-08-30T21:35:15.798Z,79.60
2018-08-30T21:37:44.518Z,80.00
2018-08-30T21:40:13.257Z,80.10
2018-08-30T21:42:42.066Z,80.40
2018-08-30T21:45:10.779Z,80.70
2018-08-30T21:47:39.540Z,81.20
2018-08-30T21:50:08.508Z,81.50
2018-08-30T21:52:37.225Z,81.90
2018-08-30T21:55:06.789Z,82.40
2018-08-30T21:57:35.580Z,83.00
2018-08-30T22:00:05.281Z,83.10
2018-08-30T22:02:34.095Z,83.40
2018-08-30T22:05:02.897Z,84.20
2018-08-30T22:07:32.159Z,84.30
2018-08-30T22:10:00.888Z,84.70
2018-08-30T22:12:36.206Z,85.10
2018-08-30T22:15:05.082Z,85.60
2018-08-30T22:17:33.824Z,85.70
2018-08-30T22:20:02.824Z,86.10
2018-08-30T22:22:31.522Z,85.90
2018-08-30T22:25:00.254Z,86.30
2018-08-30T22:27:29.098Z,86.40
2018-08-30T22:29:57.862Z,86.40
2018-08-30T22:32:26.633Z,86.80
2018-08-30T22:34:55.366Z,87.30
2018-08-30T22:37:24.066Z,87.50
2018-08-30T22:39:52.861Z,88.10
2018-08-30T22:42:21.633Z,88.60
2018-08-30T22:44:50.387Z,88.70
2018-08-30T22:47:19.088Z,88.90
2018-08-30T22:49:47.810Z,89.30
2018-08-30T22:52:16.558Z,89.10
2018-08-30T22:54:45.259Z,89.20
2018-08-30T22:57:13.960Z,89.20
2018-08-30T22:59:42.720Z,89.40
2018-08-30T23:02:11.421Z,89.40
2018-08-30T23:04:40.156Z,89.40
2018-08-30T23:07:08.871Z,89.50
2018-08-30T23:09:37.608Z,89.70
2018-08-30T23:12:14.507Z,90.00
2018-08-30T23:14:55.059Z,90.30
2018-08-30T23:17:24.306Z,90.10
2018-08-30T23:19:53.068Z,90.20
2018-08-30T23:22:21.791Z,90.10
2018-08-30T23:24:50.516Z,90.10
2018-08-30T23:27:19.205Z,90.10
2018-08-30T23:29:47.894Z,90.20
2018-08-30T23:32:16.718Z,90.20
2018-08-30T23:34:45.480Z,90.20
2018-08-30T23:37:14.168Z,90.20
2018-08-30T23:39:42.968Z,90.20
2018-08-30T23:42:11.717Z,90.20
2018-08-30T23:44:40.409Z,90.50
2018-08-30T23:47:09.285Z,90.60
2018-08-30T23:49:37.970Z,90.50
2018-08-30T23:52:06.731Z,90.50
2018-08-30T23:54:35.453Z,90.70
2018-08-30T23:57:04.269Z,90.70
2018-08-30T23:59:44.230Z,90.80
